createdAt,value
2022-10-30T00:01:45.517Z,26.92
2022-10-30T00:04:12.579Z,27.85
2022-10-30T00:06:39.552Z,29.13
2022-10-30T00:09:06.462Z,30.10
2022-10-30T00:11:33.430Z,32.08
2022-10-30T00:14:00.408Z,30.92
2022-10-30T00:16:27.395Z,26.83
2022-10-30T00:18:55.046Z,24.75
2022-10-30T00:21:21.929Z,25.15
2022-10-30T00:23:51.515Z,32.65
2022-10-30T00:26:20.165Z,25.80
2022-10-30T00:28:54.161Z,31.27
2022-10-30T00:31:21.901Z,32.50
2022-10-30T00:33:53.677Z,31.88
2022-10-30T00:36:21.309Z,26.63
2022-10-30T00:38:48.536Z,32.85
2022-10-30T00:41:21.910Z,24.85
2022-10-30T00:43:49.388Z,25.65
2022-10-30T00:46:25.711Z,30.05
2022-10-30T00:49:01.062Z,27.10
2022-10-30T00:51:30.344Z,26.33
2022-10-30T00:54:01.653Z,29.55
2022-10-30T00:56:29.612Z,30.85
2022-10-30T00:59:02.565Z,27.13
2022-10-30T01:01:32.821Z,25.10
2022-10-30T01:04:02.842Z,29.80
2022-10-30T01:06:32.819Z,26.57
2022-10-30T01:09:00.852Z,24.60
2022-10-30T01:11:27.939Z,19.27
2022-10-30T01:14:00.920Z,28.33
2022-10-30T01:16:55.135Z,27.08
2022-10-30T01:19:44.661Z,26.80
2022-10-30T01:22:26.649Z,30.50
2022-10-30T01:24:59.484Z,28.50
2022-10-30T01:27:57.474Z,27.27
2022-10-30T01:30:39.714Z,27.05
2022-10-30T01:33:34.692Z,26.05
2022-10-30T01:36:26.000Z,29.63
2022-10-30T01:38:57.282Z,24.92
2022-10-30T01:41:24.681Z,29.25
2022-10-30T01:44:00.117Z,28.08
2022-10-30T01:46:59.297Z,28.15
2022-10-30T01:50:03.919Z,24.15
2022-10-30T01:52:58.214Z,25.73
2022-10-30T01:55:56.853Z,29.27
2022-10-30T01:58:36.219Z,28.42
2022-10-30T02:01:04.714Z,29.80
2022-10-30T02:03:31.829Z,30.10
2022-10-30T02:05:58.957Z,26.42
2022-10-30T02:08:26.122Z,35.45
2022-10-30T02:10:54.505Z,28.02
2022-10-30T02:13:21.906Z,28.08
2022-10-30T02:15:50.309Z,29.42
2022-10-30T02:18:20.474Z,34.58
2022-10-30T02:20:47.537Z,26.83
2022-10-30T02:23:19.301Z,27.33
2022-10-30T02:25:46.513Z,28.23
2022-10-30T02:28:13.477Z,25.50
2022-10-30T02:30:44.508Z,29.98
2022-10-30T02:33:12.062Z,35.20
2022-10-30T02:35:39.008Z,36.67
2022-10-30T02:38:06.255Z,29.80
2022-10-30T02:40:33.452Z,28.42
2022-10-30T02:43:00.539Z,22.95
2022-10-30T02:45:27.524Z,25.20
2022-10-30T02:47:54.540Z,31.80
2022-10-30T02:50:21.712Z,32.28
2022-10-30T02:52:48.614Z,35.65
2022-10-30T02:55:15.701Z,27.17
2022-10-30T02:57:42.657Z,24.30
2022-10-30T03:00:10.361Z,29.38
2022-10-30T03:02:37.330Z,26.05
2022-10-30T03:05:05.024Z,27.67
2022-10-30T03:07:32.240Z,36.20
2022-10-30T03:09:59.281Z,37.75
2022-10-30T03:12:26.382Z,35.55
2022-10-30T03:14:53.364Z,40.30
2022-10-30T03:17:20.297Z,41.47
2022-10-30T03:19:47.286Z,35.55
2022-10-30T03:22:14.243Z,29.17
2022-10-30T03:24:41.246Z,34.70
2022-10-30T03:27:08.226Z,38.03
2022-10-30T03:29:35.222Z,31.88
2022-10-30T03:32:02.192Z,37.88
2022-10-30T03:34:29.144Z,37.20
2022-10-30T03:36:56.456Z,40.60
2022-10-30T03:39:23.394Z,35.95
2022-10-30T03:41:50.305Z,38.90
2022-10-30T03:44:17.259Z,33.53
2022-10-30T03:46:44.143Z,41.38
2022-10-30T03:49:11.151Z,28.58
2022-10-30T03:51:38.176Z,28.15
2022-10-30T03:54:05.089Z,32.03
2022-10-30T03:56:32.082Z,34.35
2022-10-30T03:58:59.037Z,31.02
2022-10-30T04:01:26.081Z,27.40
2022-10-30T04:03:53.096Z,32.55
2022-10-30T04:06:20.011Z,32.67
2022-10-30T04:08:46.944Z,32.75
2022-10-30T04:11:13.938Z,32.78
2022-10-30T04:13:40.943Z,30.70
2022-10-30T04:16:08.130Z,42.28
2022-10-30T04:18:35.246Z,34.17
2022-10-30T04:21:02.222Z,36.17
2022-10-30T04:23:29.356Z,36.40
2022-10-30T04:25:56.442Z,35.88
2022-10-30T04:28:23.397Z,31.17
2022-10-30T04:30:50.387Z,35.28
2022-10-30T04:33:17.393Z,34.53
2022-10-30T04:35:44.383Z,35.08
2022-10-30T04:38:14.187Z,30.90
2022-10-30T04:40:43.604Z,32.60
2022-10-30T04:43:12.060Z,31.90
2022-10-30T04:45:40.194Z,28.45
2022-10-30T04:48:18.578Z,32.80
2022-10-30T04:50:45.589Z,37.40
2022-10-30T04:53:15.264Z,25.92
2022-10-30T04:55:42.860Z,31.52
2022-10-30T04:58:10.618Z,31.05
2022-10-30T05:00:37.501Z,35.20
2022-10-30T05:03:04.949Z,31.30
2022-10-30T05:05:32.382Z,32.70
2022-10-30T05:07:59.864Z,31.15
2022-10-30T05:10:27.461Z,32.25
2022-10-30T05:12:54.748Z,30.27
2022-10-30T05:15:22.361Z,27.02
2022-10-30T05:17:54.076Z,28.80
2022-10-30T05:20:21.942Z,30.83
2022-10-30T05:22:56.805Z,32.25
2022-10-30T05:25:24.767Z,35.95
2022-10-30T05:27:51.938Z,34.10
2022-10-30T05:30:18.778Z,40.47
2022-10-30T05:32:45.803Z,37.28
2022-10-30T05:35:12.807Z,37.15
2022-10-30T05:37:39.800Z,36.85
2022-10-30T05:40:07.272Z,40.50
2022-10-30T05:42:34.158Z,45.63
2022-10-30T05:45:02.230Z,37.78
2022-10-30T05:47:29.646Z,37.13
2022-10-30T05:49:56.592Z,35.33
2022-10-30T05:52:23.558Z,41.47
2022-10-30T05:54:50.536Z,33.40
2022-10-30T05:57:17.485Z,32.40
2022-10-30T05:59:44.454Z,31.02
2022-10-30T06:02:11.700Z,36.28
2022-10-30T06:04:38.677Z,24.00
2022-10-30T06:07:05.779Z,28.33
2022-10-30T06:09:32.689Z,35.50
2022-10-30T06:11:59.720Z,39.13
2022-10-30T06:14:26.694Z,28.55
2022-10-30T06:16:53.631Z,29.05
2022-10-30T06:19:20.754Z,34.10
2022-10-30T06:21:47.815Z,30.20
2022-10-30T06:24:15.215Z,35.92
2022-10-30T06:26:42.176Z,34.47
2022-10-30T06:29:09.256Z,32.03
2022-10-30T06:31:36.161Z,32.08
2022-10-30T06:34:03.241Z,37.22
2022-10-30T06:36:30.212Z,35.72
2022-10-30T06:38:57.417Z,36.58
2022-10-30T06:41:29.044Z,42.03
2022-10-30T06:43:57.610Z,36.05
2022-10-30T06:46:27.471Z,25.67
2022-10-30T06:48:57.971Z,31.70
2022-10-30T06:51:25.249Z,30.42
2022-10-30T06:53:52.688Z,22.38
2022-10-30T06:56:19.697Z,28.40
2022-10-30T06:58:46.672Z,30.65
2022-10-30T07:01:13.853Z,27.52
2022-10-30T07:03:40.892Z,26.40
2022-10-30T07:06:08.050Z,31.95
2022-10-30T07:08:35.019Z,34.17
2022-10-30T07:11:02.000Z,25.63
2022-10-30T07:13:28.917Z,35.25
2022-10-30T07:15:55.854Z,32.90
2022-10-30T07:18:22.810Z,34.22
2022-10-30T07:20:56.514Z,31.83
2022-10-30T07:23:24.134Z,30.52
2022-10-30T07:25:51.226Z,27.83
2022-10-30T07:28:26.099Z,25.25
2022-10-30T07:30:53.019Z,29.90
2022-10-30T07:33:19.970Z,30.23
2022-10-30T07:35:46.945Z,25.23
2022-10-30T07:38:14.679Z,34.30
2022-10-30T07:40:41.818Z,29.08
2022-10-30T07:43:13.507Z,25.20
2022-10-30T07:45:40.504Z,34.25
2022-10-30T07:48:07.415Z,32.50
2022-10-30T07:50:34.391Z,23.25
2022-10-30T07:53:01.322Z,26.63
2022-10-30T07:55:28.344Z,30.15
2022-10-30T07:57:55.481Z,22.80
2022-10-30T08:00:22.987Z,24.42
2022-10-30T08:02:51.535Z,21.70
2022-10-30T08:05:19.459Z,25.35
2022-10-30T08:07:47.451Z,24.75
2022-10-30T08:10:14.663Z,23.42
2022-10-30T08:12:44.149Z,22.42
2022-10-30T08:15:11.998Z,18.52
2022-10-30T08:17:46.341Z,24.17
2022-10-30T08:20:15.026Z,21.65
2022-10-30T08:22:50.175Z,18.95
2022-10-30T08:25:19.520Z,19.67
2022-10-30T08:28:07.096Z,18.95
2022-10-30T08:30:36.181Z,28.50
2022-10-30T08:33:05.744Z,18.35
2022-10-30T08:35:33.503Z,19.50
2022-10-30T08:38:03.294Z,19.35
2022-10-30T08:40:30.370Z,16.77
2022-10-30T08:42:58.522Z,20.10
2022-10-30T08:45:29.930Z,16.30
2022-10-30T08:48:00.806Z,15.93
2022-10-30T08:50:28.264Z,12.93
2022-10-30T08:52:55.291Z,16.38
2022-10-30T08:55:22.503Z,16.38
2022-10-30T08:57:49.683Z,15.55
2022-10-30T09:00:16.872Z,15.93
2022-10-30T09:02:44.590Z,12.93
2022-10-30T09:05:11.982Z,16.23
2022-10-30T09:07:38.920Z,14.48
2022-10-30T09:10:06.429Z,15.32
2022-10-30T09:12:33.406Z,13.15
2022-10-30T09:15:00.471Z,17.00
2022-10-30T09:17:27.513Z,14.15
2022-10-30T09:19:54.595Z,9.50
2022-10-30T09:22:21.578Z,10.90
2022-10-30T09:24:48.732Z,11.07
2022-10-30T09:27:15.749Z,14.10
2022-10-30T09:29:42.675Z,12.00
2022-10-30T09:32:10.780Z,12.82
2022-10-30T09:34:38.754Z,12.35
2022-10-30T09:37:06.180Z,14.70
2022-10-30T09:39:33.156Z,11.88
2022-10-30T09:42:36.528Z,10.15
2022-10-30T09:45:28.803Z,11.25
2022-10-30T09:48:09.459Z,9.68
2022-10-30T09:50:56.348Z,13.55
2022-10-30T09:53:34.139Z,11.38
2022-10-30T09:56:16.033Z,12.25
2022-10-30T09:59:13.344Z,11.57
2022-10-30T10:01:53.633Z,15.32
2022-10-30T10:04:40.048Z,13.65
2022-10-30T10:07:17.608Z,14.02
2022-10-30T10:09:45.333Z,12.13
2022-10-30T10:12:26.193Z,8.48
2022-10-30T10:17:43.726Z,9.27
2022-10-30T10:20:30.268Z,9.32
2022-10-30T10:23:00.430Z,9.73
2022-10-30T10:25:31.521Z,10.50
2022-10-30T10:31:13.011Z,8.35
2022-10-30T10:34:04.627Z,8.02
2022-10-30T10:36:43.324Z,6.93
2022-10-30T10:39:40.333Z,6.90
2022-10-30T10:42:16.499Z,6.15
2022-10-30T10:44:50.538Z,8.07
2022-10-30T10:47:37.498Z,8.10
2022-10-30T10:50:15.276Z,11.02
2022-10-30T10:52:55.815Z,9.07
2022-10-30T10:55:28.746Z,6.82
2022-10-30T10:58:00.328Z,8.82
2022-10-30T11:00:29.801Z,12.50
2022-10-30T11:03:03.434Z,5.45
2022-10-30T11:05:47.173Z,6.20
2022-10-30T11:08:29.707Z,8.07
2022-10-30T11:11:02.100Z,7.88
2022-10-30T11:13:36.671Z,8.02
2022-10-30T11:16:09.952Z,7.00
2022-10-30T11:18:37.125Z,6.65
2022-10-30T11:21:10.277Z,7.40
2022-10-30T11:23:44.569Z,6.30
2022-10-30T11:26:17.631Z,5.53
2022-10-30T11:28:59.383Z,5.47
2022-10-30T11:31:40.831Z,6.65
2022-10-30T11:34:17.786Z,6.20
2022-10-30T11:36:45.913Z,8.07
2022-10-30T11:39:19.958Z,6.65
2022-10-30T11:42:05.741Z,5.85
2022-10-30T11:44:45.796Z,7.72
2022-10-30T11:47:15.786Z,8.20
2022-10-30T11:49:55.675Z,6.83
2022-10-30T11:52:25.116Z,5.07
2022-10-30T11:55:00.749Z,5.55
2022-10-30T11:57:38.184Z,5.75
2022-10-30T12:00:09.268Z,4.18
2022-10-30T12:02:43.351Z,7.07
2022-10-30T12:05:31.117Z,5.47
2022-10-30T12:08:07.208Z,4.65
2022-10-30T12:10:42.155Z,5.32
2022-10-30T12:13:15.992Z,8.50
2022-10-30T12:15:45.525Z,5.60
2022-10-30T12:18:25.914Z,4.40
2022-10-30T12:20:57.421Z,5.43
2022-10-30T12:23:27.258Z,5.28
2022-10-30T12:25:57.865Z,3.87
2022-10-30T12:28:27.775Z,4.22
2022-10-30T12:31:03.161Z,4.60
2022-10-30T12:33:37.835Z,4.18
2022-10-30T12:36:14.461Z,4.00
2022-10-30T12:38:45.494Z,3.80
2022-10-30T12:41:30.860Z,4.68
2022-10-30T12:44:20.169Z,4.20
2022-10-30T12:47:08.936Z,4.20
2022-10-30T12:49:58.263Z,2.72
2022-10-30T12:52:51.808Z,2.90
2022-10-30T12:55:28.042Z,4.30
2022-10-30T12:58:15.800Z,4.60
2022-10-30T13:00:59.158Z,3.97
2022-10-30T13:03:36.481Z,8.05
2022-10-30T13:06:15.489Z,4.97
2022-10-30T13:09:15.571Z,5.63
2022-10-30T13:11:59.775Z,4.60
2022-10-30T13:14:43.098Z,4.38
2022-10-30T13:17:12.750Z,5.63
2022-10-30T13:19:45.761Z,7.65
2022-10-30T13:22:49.525Z,9.82
2022-10-30T13:25:26.666Z,6.10
2022-10-30T13:28:06.042Z,5.50
2022-10-30T13:30:42.556Z,6.43
2022-10-30T13:33:41.566Z,5.50
2022-10-30T13:36:14.460Z,7.03
2022-10-30T13:39:03.220Z,5.50
2022-10-30T13:42:00.558Z,7.85
2022-10-30T13:44:53.783Z,7.60
2022-10-30T13:47:29.651Z,7.95
2022-10-30T13:50:15.135Z,6.65
2022-10-30T13:52:47.530Z,6.57
2022-10-30T13:55:30.137Z,7.60
2022-10-30T13:58:16.153Z,7.97
2022-10-30T14:00:58.428Z,9.65
2022-10-30T14:03:33.724Z,11.25
2022-10-30T14:06:21.861Z,6.22
2022-10-30T14:09:34.482Z,7.00
2022-10-30T14:12:38.450Z,4.63
2022-10-30T14:15:06.723Z,4.45
2022-10-30T14:17:33.803Z,4.82
2022-10-30T14:20:12.559Z,4.22
2022-10-30T14:22:41.424Z,6.20
2022-10-30T14:25:16.304Z,6.63
2022-10-30T14:27:43.534Z,4.55
2022-10-30T14:30:20.551Z,5.10
2022-10-30T14:32:52.590Z,5.65
2022-10-30T14:35:38.252Z,8.07
2022-10-30T14:38:08.177Z,4.93
2022-10-30T14:40:38.293Z,4.90
2022-10-30T14:43:36.709Z,7.22
2022-10-30T14:46:19.239Z,8.18
2022-10-30T14:49:11.356Z,8.50
2022-10-30T14:52:17.707Z,7.53
2022-10-30T14:55:07.178Z,8.18
2022-10-30T14:57:54.618Z,8.52
2022-10-30T15:00:24.377Z,11.73
2022-10-30T15:03:34.582Z,7.80
2022-10-30T15:06:21.570Z,10.70
2022-10-30T15:09:07.402Z,16.50
2022-10-30T15:11:56.560Z,13.90
2022-10-30T15:14:48.398Z,15.98
2022-10-30T15:17:23.756Z,15.90
2022-10-30T15:19:50.908Z,18.27
2022-10-30T15:22:21.329Z,19.88
2022-10-30T15:24:51.300Z,19.83
2022-10-30T15:27:20.964Z,19.83
2022-10-30T15:29:55.122Z,18.65
2022-10-30T15:32:24.633Z,22.73
2022-10-30T15:35:01.400Z,29.48
2022-10-30T15:37:28.649Z,28.02
2022-10-30T15:40:17.196Z,26.02
2022-10-30T15:42:45.618Z,29.98
2022-10-30T15:45:22.053Z,29.75
2022-10-30T15:47:59.958Z,26.35
2022-10-30T15:50:27.889Z,23.50
2022-10-30T15:52:55.627Z,28.02
2022-10-30T15:55:28.640Z,24.05
2022-10-30T15:58:04.361Z,27.60
2022-10-30T16:00:36.129Z,23.65
2022-10-30T16:03:06.882Z,24.05
2022-10-30T16:05:35.137Z,28.42
2022-10-30T16:08:04.052Z,26.58
2022-10-30T16:10:36.123Z,30.70
2022-10-30T16:13:04.196Z,40.42
2022-10-30T16:15:35.270Z,35.33
2022-10-30T16:18:08.277Z,41.08
2022-10-30T16:20:36.672Z,35.42
2022-10-30T16:23:05.610Z,37.83
2022-10-30T16:25:34.526Z,39.28
2022-10-30T16:28:01.883Z,36.03
2022-10-30T16:30:32.310Z,33.75
2022-10-30T16:33:00.169Z,41.28
2022-10-30T16:35:28.249Z,38.03
2022-10-30T16:37:56.719Z,36.30
2022-10-30T16:40:29.315Z,40.63
2022-10-30T16:43:02.181Z,38.80
2022-10-30T16:45:32.390Z,49.28
2022-10-30T16:48:09.261Z,51.13
2022-10-30T16:50:38.518Z,69.93
2022-10-30T16:53:19.760Z,67.43
2022-10-30T16:55:47.380Z,68.22
2022-10-30T16:58:16.399Z,58.53
2022-10-30T17:00:53.843Z,56.20
2022-10-30T17:03:25.561Z,67.78
2022-10-30T17:06:04.900Z,101.18
2022-10-30T17:08:42.201Z,93.93
2022-10-30T17:11:21.083Z,108.43
2022-10-30T17:13:59.901Z,87.55
2022-10-30T17:16:27.990Z,102.45
2022-10-30T17:19:00.432Z,82.57
2022-10-30T17:21:38.609Z,82.03
2022-10-30T17:24:06.345Z,85.00
2022-10-30T17:26:41.209Z,79.68
2022-10-30T17:29:36.854Z,74.68
2022-10-30T17:32:23.553Z,64.78
2022-10-30T17:35:00.675Z,57.42
2022-10-30T17:37:28.209Z,68.95
2022-10-30T17:39:55.192Z,63.67
2022-10-30T17:42:22.642Z,62.30
2022-10-30T17:44:49.637Z,61.50
2022-10-30T17:47:18.955Z,54.92
2022-10-30T17:49:46.852Z,54.10
2022-10-30T17:52:15.819Z,71.93
2022-10-30T17:54:43.200Z,68.97
2022-10-30T17:57:12.119Z,65.10
2022-10-30T17:59:39.935Z,64.28
2022-10-30T18:02:17.029Z,55.90
2022-10-30T18:04:44.746Z,62.58
2022-10-30T18:07:13.310Z,59.67
2022-10-30T18:09:40.950Z,64.45
2022-10-30T18:12:12.584Z,64.82
2022-10-30T18:14:39.497Z,67.18
2022-10-30T18:17:07.058Z,64.60
2022-10-30T18:19:33.956Z,57.65
2022-10-30T18:22:00.909Z,71.57
2022-10-30T18:24:27.842Z,70.25
2022-10-30T18:26:58.793Z,124.68
2022-10-30T18:29:25.818Z,121.00
2022-10-30T18:31:52.819Z,130.88
2022-10-30T18:34:22.573Z,123.95
2022-10-30T18:36:50.000Z,115.93
2022-10-30T18:39:21.014Z,106.97
2022-10-30T18:41:49.453Z,113.35
2022-10-30T18:44:19.447Z,124.45
2022-10-30T18:46:46.775Z,116.75
2022-10-30T18:49:14.020Z,114.07
2022-10-30T18:51:41.306Z,120.72
2022-10-30T18:54:14.055Z,113.43
2022-10-30T18:56:41.432Z,124.28
2022-10-30T18:59:08.386Z,118.05
2022-10-30T19:01:35.773Z,113.13
2022-10-30T19:04:04.186Z,122.15
2022-10-30T19:06:34.809Z,107.85
2022-10-30T19:09:02.037Z,104.75
2022-10-30T19:11:31.913Z,116.75
2022-10-30T19:13:59.135Z,125.10
2022-10-30T19:16:26.228Z,128.32
2022-10-30T19:18:53.464Z,138.77
2022-10-30T19:21:25.951Z,148.10
2022-10-30T19:23:54.444Z,120.93
2022-10-30T19:26:21.363Z,145.65
2022-10-30T19:28:48.336Z,126.93
2022-10-30T19:31:17.493Z,148.65
2022-10-30T19:33:44.709Z,132.80
2022-10-30T19:36:37.192Z,135.70
2022-10-30T19:39:11.648Z,131.52
2022-10-30T19:41:40.291Z,137.27
2022-10-30T19:44:07.235Z,133.65
2022-10-30T19:46:34.444Z,148.30
2022-10-30T19:49:02.080Z,153.15
2022-10-30T19:51:29.359Z,154.60
2022-10-30T19:53:56.524Z,140.65
2022-10-30T19:56:23.627Z,151.13
2022-10-30T19:58:50.912Z,128.32
2022-10-30T20:01:18.201Z,128.18
2022-10-30T20:03:45.288Z,146.13
2022-10-30T20:06:13.765Z,133.55
2022-10-30T20:08:40.783Z,148.90
2022-10-30T20:11:08.128Z,138.35
2022-10-30T20:13:35.288Z,143.07
2022-10-30T20:16:05.391Z,135.88
2022-10-30T20:18:35.137Z,130.07
2022-10-30T20:21:05.060Z,136.65
2022-10-30T20:23:32.043Z,135.30
2022-10-30T20:26:01.845Z,139.07
2022-10-30T20:28:32.129Z,136.17
2022-10-30T20:30:59.281Z,137.15
2022-10-30T20:33:26.636Z,142.32
2022-10-30T20:35:57.071Z,137.00
2022-10-30T20:38:26.717Z,146.40
2022-10-30T20:40:54.313Z,146.07
2022-10-30T20:43:25.401Z,119.72
2022-10-30T20:45:52.360Z,122.68
2022-10-30T20:48:19.442Z,120.82
2022-10-30T20:50:50.484Z,124.07
2022-10-30T20:53:17.838Z,125.50
2022-10-30T20:55:45.764Z,131.50
2022-10-30T20:58:13.365Z,136.23
2022-10-30T21:00:40.552Z,116.13
2022-10-30T21:03:07.930Z,131.30
2022-10-30T21:05:44.724Z,114.68
2022-10-30T21:08:14.482Z,113.55
2022-10-30T21:10:42.561Z,131.20
2022-10-30T21:13:10.888Z,126.95
2022-10-30T21:15:42.933Z,125.53
2022-10-30T21:18:11.792Z,131.90
2022-10-30T21:20:39.513Z,145.18
2022-10-30T21:23:06.872Z,131.07
2022-10-30T21:25:34.100Z,139.98
2022-10-30T21:28:01.884Z,139.63
2022-10-30T21:30:29.113Z,138.25
2022-10-30T21:32:56.083Z,132.40
2022-10-30T21:35:23.079Z,143.70
2022-10-30T21:37:50.282Z,135.23
2022-10-30T21:40:17.394Z,143.20
2022-10-30T21:42:47.231Z,157.13
2022-10-30T21:45:14.224Z,183.23
2022-10-30T21:47:41.150Z,166.90
2022-10-30T21:50:12.291Z,166.77
2022-10-30T21:52:40.174Z,196.82
2022-10-30T21:55:07.689Z,177.45
2022-10-30T21:57:35.216Z,187.07
2022-10-30T22:00:05.678Z,178.18
2022-10-30T22:02:34.580Z,187.20
2022-10-30T22:05:01.589Z,183.88
2022-10-30T22:07:28.554Z,182.60
2022-10-30T22:09:55.534Z,173.50
2022-10-30T22:12:22.469Z,182.20
2022-10-30T22:14:49.398Z,185.35
2022-10-30T22:17:16.489Z,181.05
2022-10-30T22:19:43.429Z,182.88
2022-10-30T22:22:11.414Z,150.23
2022-10-30T22:24:38.710Z,162.48
2022-10-30T22:27:05.789Z,152.30
2022-10-30T22:29:33.018Z,153.48
2022-10-30T22:32:00.051Z,153.73
2022-10-30T22:34:27.031Z,153.68
2022-10-30T22:36:53.948Z,159.32
2022-10-30T22:39:20.922Z,139.75
2022-10-30T22:41:47.878Z,150.52
2022-10-30T22:44:18.895Z,158.63
2022-10-30T22:46:46.279Z,145.63
2022-10-30T22:49:13.279Z,152.60
2022-10-30T22:51:40.306Z,157.45
2022-10-30T22:54:10.202Z,160.38
2022-10-30T22:56:37.664Z,158.27
2022-10-30T22:59:08.440Z,163.60
2022-10-30T23:04:05.263Z,162.15
2022-10-30T23:06:34.330Z,150.25
2022-10-30T23:09:04.507Z,164.38
2022-10-30T23:11:31.517Z,154.68
2022-10-30T23:13:58.471Z,147.32
2022-10-30T23:16:26.769Z,155.23
2022-10-30T23:18:58.338Z,159.43
2022-10-30T23:21:27.073Z,143.18
2022-10-30T23:23:55.482Z,166.05
2022-10-30T23:26:28.191Z,160.00
2022-10-30T23:28:56.290Z,143.75
2022-10-30T23:31:31.400Z,152.70
2022-10-30T23:34:00.983Z,144.88
2022-10-30T23:36:28.616Z,143.98
2022-10-30T23:39:00.520Z,132.90
2022-10-30T23:41:30.896Z,140.75
2022-10-30T23:44:00.360Z,128.73
2022-10-30T23:46:28.051Z,132.13
2022-10-30T23:48:55.663Z,142.68
2022-10-30T23:51:22.608Z,139.32
2022-10-30T23:53:49.762Z,136.88
2022-10-30T23:56:17.301Z,123.82
2022-10-30T23:58:45.914Z,118.53
